Latest Observation

114 Stations

10 Minute Data
as of 9/4/26 5:40 AM PDT
Station Date Time Temp (°F) RH (%) Dew Pt (°F) Wind Spd (mph) Wind Dir (°) Wind Gust (mph) Wind Gst Dir (°) Latest Rain (In) Soil Moist (%) Soil Temp (°F) Daily Rain (In) Daily Min Temp (°F) Daily Max Temp (°F) Daily Max Wind (mph)
Hobart Mills 9/4/26 0540 48.6   0.4 82   26 43.5   9.2 2.5   0.4 SSW | 207 10.1   0.2 WSW | 243 0.00 7.5   0.1 62.2   1.8 0.00 47.6   1.4 49.7   0.2 15.8   3.2
Prosser Dam 9/4/26 0540 48.7   2.2 85   39 44.6   13.3 2.4   0.0 WSW | 250 6.1   0.9 WSW | 255 0.01 5.3   0.1 60.7   0.9 0.03 48.6   1.8 52.6   1.2 12.3   2.6
West Incline Village 9/4/26 0540 44.5   0.2 91   46 42.1   17.4 4.7   4.3 S | 184 14.0   11.0 SSE | 163 0.00 11.7   0.0 56.6   0.9 0.00 44.3   0.4 46.2   0.6 21.6   11.5
Incline Village (Fairview Blvd) 9/4/26 0540 46.9   0.3 85   43 42.7   17.4 2.3   1.0 WSW | 237 9.1   4.7 SSW | 196 0.00 7.6   0.0 69.2   1.4 0.00 46.8   0.4 48.4   0.6 18.0   6.1
Incline Village (Diamond Peak) 9/4/26 0540 44.7   0.1 88   42 41.5   16.4 3.4   1.4 NNE | 19 6.0   3.8 NNW | 343 0.00 2.5   0.0 57.9   2.0 0.00 44.7   1.1 45.8   0.1 12.7   0.7
Incline Village (Mill Creek) 9/4/26 0540 49.5 78 43.0 4.0 WSW | 254 10.8 W | 261 0.00 3.0 61.4 0.00 49.5 50.7 18.9
Incline Village (Lakeshore Blvd) 9/4/26 0540 52.4   0.6 79   30 46.1   12.8 7.3   5.1 SW | 230 15.8   5.6 SW | 218 0.00 24.0   4.4 59.1   1.2 0.00 51.9   0.7 53.7   0.1 17.0   5.6
Glenbrook 9/4/26 0540 52.4   0.4 70   23 43.1   10.7 10.0   2.8 WSW | 240 22.6   5.8 SW | 224 0.00 43.3   0.2 58.3   0.4 0.00 51.7   0.1 54.6   1.3 26.3   8.2
Zephyr Cove 9/4/26 0540 50.0   1.7 71   21 40.8   10.7 1.4   1.3 ESE | 122 7.8   6.2 SW | 222 0.00 2.8   0.0 60.1   1.5 0.00 49.9   2.1 51.6   2.2 12.5   7.4
Kingsbury Grade 9/4/26 0540 47.6   2.7 78   16 41.0   8.6 2.1   1.1 WNW | 295 8.6   6.0 NNW | 333 0.00 2.4   0.1 64.8   0.0 0.00 47.5   3.3 49.7   3.8 18.4   13.0
South Daggett Pass (Ridge) 9/4/26 0540 44.2   3.3 84   16 39.8   8.5 2.2   0.4 W | 263 7.9   2.1 N | 0 0.00 2.2   0.0 61.8   1.1 0.00 44.0   3.2 46.0   2.8 18.4   6.0
Palomino Valley 9/4/26 0540 55.4   3.6 69   33 45.5   13.3 2.5   5.5 SW | 223 4.8   9.2 WSW | 239 0.00 6.6   0.0 74.6   0.3 0.00 54.1   2.5 61.2   0.9 11.0   3.7
East Cold Springs 9/4/26 0540 53.0   0.3 69   22 43.1   10.0 7.2   3.1 WSW | 247 11.9   5.7 WSW | 249 0.00 1.5   0.0 70.2   0.5 0.00 51.4   0.9 53.4   0.7 18.3   5.0
Peavine 9/4/26 0540 51.8   0.1 66   27 40.8   12.9 10.2   11.8 SW | 230 18.1   12.2 SW | 231 0.00 4.3   0.0 65.4   1.5 0.02 51.0   0.8 52.9   1.5 26.1   20.7
West Verdi Peak 9/4/26 0640 47.6   0.5 84   28 42.8   9.9 2.8   0.6 SSE | 150 9.6   3.0 SE | 139 0.00 6.4   0.1 66.3   1.9 0.04 46.9   1.1 48.4   0.6 19.9   3.9
West Verdi 9/4/26 0540 54.9   0.5 66   25 44.0   11.4 3.9   0.5 SSW | 192 15.2   2.7 S | 170 0.00 6.2   0.0 77.4   1.3 0.02 53.6   1.4 56.3   0.1 27.2   9.6
South Verdi 9/4/26 0540 53.5   0.8 67   31 42.8   14.8 11.6   1.7 SW | 225 21.1   0.6 SW | 221 0.00 10.3   0.1 67.1   1.1 0.01 51.5   1.9 55.0   0.4 30.7   3.6
Northwest Reno 9/4/26 0530 56.5   0.2 59   24 42.5   13.6 12.6   12.9 WSW | 249 17.4   12.9 WSW | 258 0.00 24.6   0.2 73.3   1.1 0.00 54.9   0.2 57.3   0.5 26.1   24.5
North Lawton 8/28/26 1620 63.8   17.1 74   52 55.4   16.5 1.5   11.6 ESE | 121 5.1   19.0 SE | 124 0.00 - 78.2   0.0 0.05 59.2   7.5 71.9   13.3 20.4   4.6
West Reno (Mogul) 9/4/26 0530 55.8   0.7 62   29 43.1   15.5 0.8   4.5 NNW | 341 5.8   5.8 NNW | 328 0.00 19.5   0.1 77.3   0.6 0.00 53.3   2.6 56.9   0.5 9.9   21.2
Caughlin (Hunter Lake Trail) 9/4/26 0540 56.8   0.6 57   21 42.0   11.0 1.8   5.9 WNW | 303 7.6   5.5 WNW | 298 0.00 16.3   0.1 71.7   0.3 0.00 53.8   1.8 57.7   0.9 17.9   13.2
ArrowCreek 9/4/26 0540 58.4   1.0 54   26 41.6   17.7 12.6   8.2 SSE | 150 22.1   13.3 SSE | 166 0.00 - 32.0   0.0 0.00 57.8   0.9 59.1   0.6 30.7   10.9
Tracy 9/4/26 0540 63.1   1.9 48   11 43.0   8.3 5.7   0.2 WSW | 251 7.9   5.7 W | 264 0.00 15.6   0.1 76.7   0.3 0.00 63.0   4.7 64.4   2.9 14.2   3.9
Virginia Highlands 9/4/26 0540 54.1   4.2 59   8 40.3   7.5 4.5   3.4 SW | 223 11.3   7.0 SSW | 209 0.00 7.8   0.1 72.4   0.8 0.00 53.8   4.1 54.7   0.8 15.3   0.4
Virginia City 9/4/26 0540 53.2   2.9 59   18 39.2   11.7 10.2   0.9 SSE | 167 17.4   0.5 S | 176 0.00 4.7   0.0 71.4   0.3 0.00 53.2   3.2 53.8   2.1 28.2   6.5
Six Mile Canyon 9/4/26 0540 62.3   4.5 45   13 40.4   12.7 8.9   2.6 SW | 224 13.2   3.7 WSW | 239 0.00 12.2   0.2 74.5   1.4 0.00 62.0   4.7 62.6   1.9 13.2   6.7
Mt Rose Highway 9/4/26 0540 46.4   0.6 78   47 40.1   21.9 3.4   1.6 SW | 228 10.9   2.0 W | 260 0.00 7.4   0.0 60.5   0.9 0.02 44.9   1.5 47.3   0.2 31.3   13.3
Pleasant Valley 9/4/26 0540 58.9   1.4 55   22 43.0   13.9 7.9   3.6 SW | 214 11.7   9.3 SW | 227 0.00 2.3   0.0 75.2   0.1 0.00 58.6   2.5 60.2   1.2 27.1   4.6
New Washoe City 9/4/26 0540 58.0   2.8 54   14 41.7   10.0 10.2   3.7 SW | 218 16.0   4.2 SSW | 211 0.00 3.4   0.1 71.4   1.1 0.00 57.8   5.1 58.9   2.8 18.9   7.1
Franktown Creek 9/4/26 0500 57.9   0.8 59   19 43.9   10.3 4.9   2.7 SSW | 211 13.5   5.0 SW | 219 0.00 7.0   0.1 71.0   0.6 0.00 57.6   1.1 59.4   1.8 25.5   6.1
Musgrove Creek 9/4/26 0540 54.1   2.2 66   19 42.8   10.7 1.6   0.2 WNW | 301 6.7   3.7 WNW | 284 0.00 10.2   0.1 59.9   0.4 0.00 52.6   1.2 56.8   2.5 9.7   3.9
East Carson 11/23/24 0110 28.6   28.4 - - 4.7   11.0 SW | 220 14.7   10.1 SW | 219 0.02 - 50.9   0.1 0.02 -25.9   79.1 42.9   14.6 16.0   10.7
Kings Canyon 9/4/26 0540 57.3   2.4 55   20 41.4   13.4 3.4   0.8 SSE | 165 13.2   6.0 SSE | 166 0.00 4.2   0.0 67.4   0.6 0.00 57.3   2.5 58.8   2.5 17.3   3.0
Carson City (Voltaire Canyon) 9/4/26 0540 59.2   4.4 52   12 41.7   10.5 18.4   11.8 SSW | 210 29.6   18.3 SSW | 210 0.00 2.8   0.0 77.0   0.9 0.00 59.0   5.1 60.2   0.4 37.1   11.3
Jacks Valley 9/4/26 0540 58.1   2.1 53   20 40.9   13.8 15.9   10.4 WSW | 242 25.5   16.4 WSW | 248 0.00 4.6   0.1 73.9   0.5 0.00 57.9   2.2 58.8   0.7 28.3   5.7
Genoa 9/4/26 0540 60.1   2.3 53   17 42.8   12.2 1.7   0.7 SW | 217 8.7   4.3 SE | 135 0.00 2.3   0.1 66.3   3.4 0.00 60.0   2.9 61.4   2.4 13.8   0.9
South Genoa (Walleys Hot Springs) 9/4/26 0540 61.8   10.5 48   0 42.2   9.8 5.7   5.5 SW | 232 10.7   7.7 WSW | 254 0.00 4.7   0.0 73.7   0.5 0.00 61.2   11.2 62.6   1.1 20.4   2.4
SW Gardnerville (HWY 88) 9/4/26 0540 60.1   9.8 51   0 41.9   8.9 16.4   13.5 SSE | 153 24.0   18.0 SSE | 161 0.00 2.8   0.1 68.4   0.4 0.00 59.9   10.6 61.2   3.5 30.2   19.9
Sheridan 9/4/26 0540 59.8   6.0 50   14 41.4   13.6 4.0   1.2 SSW | 202 13.4   7.0 ESE | 104 0.00 1.1   0.0 71.5   0.0 0.00 59.2   9.2 61.6   4.2 22.6   14.0
Ruhenstroth 9/4/26 0540 59.2   3.3 48   5 39.6   5.5 14.2   1.4 S | 183 22.8   3.1 S | 171 0.00 6.7   0.0 71.2   1.2 0.00 59.2   4.9 60.0   2.0 31.7   11.4
Double Spring 9/4/26 0540 56.5   8.9 49   4 37.7   6.2 8.1   3.6 S | 175 16.4   6.8 SSW | 198 0.00 25.0   0.0 68.8   1.9 0.00 54.7   16.0 56.7   8.6 16.4   6.8
North Topaz Lake 9/4/26 0540 58.8   1.5 47   16 38.4   11.5 4.7   2.8 S | 185 10.7   8.8 S | 182 0.00 7.5   0.1 68.9   3.8 0.00 58.5   3.3 59.6   1.7 17.8   7.3
Wild Oat Mountain 9/4/26 0540 56.7   2.6 49   13 37.6   9.8 5.7   5.3 SSW | 197 10.8   6.0 SW | 230 0.00 5.6   0.1 69.6   1.8 0.00 56.7   3.2 57.6   0.6 21.4   4.6
Smith Valley 9/4/26 0540 63.3   5.4 40   8 38.4   10.8 7.9   6.9 S | 185 14.0   9.7 S | 180 0.00 2.8   0.1 76.2   0.8 0.00 62.8   5.5 63.9   0.2 18.0   10.6
Pine Grove Mountain 9/4/26 0540 45.9   0.2 60   27 32.8   14.4 11.5   1.1 SSW | 195 21.6   1.7 S | 186 0.00 6.6   0.2 62.4   0.7 0.00 45.7   0.1 46.9   1.8 21.6   1.6
Paradise Hill 9/4/26 0540 55.9   0.4 65   22 44.5   10.3 6.0   3.9 WNW | 299 8.4   3.7 WNW | 288 0.00 9.8   0.1 71.4   0.6 0.00 53.3   2.7 60.0   1.9 22.7   2.9
Winnemucca 9/4/26 0540 52.1   5.4 66   29 41.2   9.6 0.6   1.6 NW | 321 2.0   2.0 NW | 310 0.00 5.7   0.0 72.7   0.6 0.00 52.1   2.9 59.1   0.5 15.2   5.1
NE Elko 9/4/26 0540 47.0   9.2 59   27 33.5   6.8 0.6   3.1 NNE | 12 1.9   3.8 NNE | 15 0.00 5.7   0.1 71.0   1.0 0.00 46.7   6.6 62.5   3.9 11.8   3.6
North Elko 9/4/26 0540 55.4   0.3 53   21 38.4   12.2 3.7   3.2 WNW | 283 5.2   3.9 WNW | 285 0.00 24.7   0.0 71.2   0.3 0.00 53.7   1.2 59.0   0.9 6.0   4.0
South Elko 9/4/26 0540 54.9   0.4 52   20 37.8   12.6 2.2   0.5 SW | 228 3.0   1.5 SW | 225 0.00 13.6   0.1 67.1   1.0 0.00 54.0   0.5 110.0   52.5 11.7   1.9
Lamoille 9/4/26 0540 50.2   8.0 58   26 36.0   7.8 5.1   2.4 SE | 136 7.2   2.7 SE | 129 0.00 6.2   0.1 67.1   1.0 0.00 47.4   5.8 58.4   1.4 13.2   1.4
Reid Gardner Sub 9/4/26 0540 61.7   9.6 34   10 33.3   0.5 0.1   1.1 W | 270 2.1   1.4 W | 279 0.00 23.8   1.4 87.3   0.2 0.00 61.5   8.0 76.6   6.7 7.1   4.5
Corn Creek 9/4/26 0540 71.6   1.0 35   11 42.6   9.9 12.0   5.1 ENE | 71 31.9   20.2 E | 82 0.00 3.0   0.1 85.3   1.1 0.00 70.7   1.9 78.5   2.5 31.9   19.9
Lucky Strike 9/4/26 0540 64.8   1.0 27   15 29.7   18.5 2.3   6.1 WSW | 255 5.0   7.2 WNW | 285 0.00 3.1   0.0 80.0   0.1 0.00 63.7   0.8 70.7   1.5 23.7   11.4
Lower Angel Peak 9/4/26 0540 64.8   9.1 24   7 27.6   15.9 4.9   1.3 WNW | 298 12.2   2.9 WNW | 298 0.00 3.2   0.1 72.4   0.4 0.00 59.6   5.8 67.2   6.7 16.2   6.1
Angel Peak 9/4/26 0540 56.1   0.9 29   5 24.0   5.3 28.4   25.8 S | 191 37.9   27.8 S | 188 0.00 2.6   0.3 63.6   0.1 0.00 54.4   0.6 56.7   0.8 41.9   25.1
Upper Kyle Canyon 9/4/26 0540 57.6   1.1 26   1 23.3   0.1 4.5   1.4 ENE | 78 11.7   1.1 ESE | 105 0.00 7.7   0.0 75.2   0.1 0.00 56.6   1.8 60.1   2.0 23.7   9.1
Mt Charleston 9/4/26 0540 58.8   0.1 26   2 24.1   1.8 10.5   6.6 W | 274 26.8   8.6 WNW | 294 0.00 13.2   0.1 66.2   0.4 0.00 56.2   2.2 61.0   0.0 28.7   1.9
Mid Kyle Canyon 9/4/26 0540 64.3   2.6 24   6 26.7   8.9 10.6   8.9 WSW | 255 17.5   8.2 W | 275 0.00 5.8   0.0 74.1   0.1 0.00 64.0   7.4 68.3   3.8 35.0   22.8
Blue Diamond 9/4/26 0540 75.2   4.3 27   1 38.7   4.6 8.2   5.5 WSW | 252 16.9   10.6 WSW | 256 0.00 1.2   0.1 84.5   0.2 0.00 73.1   2.9 78.4   0.7 27.8   9.4
Artesian Sub 9/4/26 0540 78.5   1.1 30   9 44.8   9.8 6.7   2.3 SE | 124 12.4   2.6 ESE | 117 0.00 11.6   0.1 92.6   0.4 0.00 78.4   1.1 84.5   0.1 13.9   1.1
North Henderson 9/4/26 0540 80.0   0.6 27   8 43.0   9.1 5.7   1.1 ESE | 109 9.8   0.2 ESE | 113 0.00 10.5   0.0 96.0   0.5 0.00 79.6   0.6 85.9   0.8 17.4   5.0
Sandy Valley 9/4/26 0540 71.2   1.2 40   11 45.7   7.4 4.8   3.6 N | 357 5.5   2.7 N | 1 0.00 7.7   0.2 86.0   0.0 0.00 68.4   1.6 76.2   1.6 8.3   0.0
Searchlight 9/4/26 0540 69.0   2.9 39   16 43.3   15.3 2.8   0.7 NW | 304 4.8   3.1 NW | 307 0.00 5.8   0.1 83.1   1.1 0.00 67.6   2.2 72.6   1.2 17.3   6.1
Laughlin 9/4/26 0540 80.3   2.3 19   1 34.2   1.1 4.6   3.9 W | 276 5.6   2.1 W | 281 0.00 4.4   0.0 98.3   1.2 0.00 80.0   2.4 88.2   0.5 10.6   4.2
31Mission Hills 9/4/26 0540 74.5   0.4 28   8 39.2   7.7 6.9   0.5 S | 184 8.7   0.2 S | 182 0.00 6.3   0.2 83.5   0.4 0.00 74.3   0.1 79.7   0.2 14.0   1.7
32 Enterprise Sierra Cliffs 9/4/26 0540 70.1   3.6 34   13 40.6   8.8 11.0   1.8 SE | 141 15.0   4.0 SE | 137 0.00 1.2   0.0 80.8   0.2 0.00 69.6   3.2 77.8   1.8 19.5   7.3
29 Calico Basin 9/4/26 0540 70.9   1.4 29   11 36.8   10.7 3.7   4.7 E | 80 8.1   4.1 E | 98 0.00 2.4   0.0 83.9   0.5 0.00 70.6   0.6 76.8   2.0 24.5   1.1
28 Indian Springs 9/4/26 0540 66.4   2.4 23   10 27.7   14.7 1.7   0.8 SSW | 194 5.5   2.4 SSW | 196 0.00 4.4   0.0 84.9   0.1 0.00 65.0   1.4 73.4   2.3 9.1   0.2
30 Jean 9/4/26 0540 68.7   2.4 36   8 41.0   8.8 8.7   3.3 SSW | 212 13.4   3.2 SW | 215 0.00 4.9   0.1 81.7   0.4 0.00 68.4   2.5 74.3   0.5 18.1   0.6
VC Highlands NW 9/4/26 0540 51.7   2.2 62   15 39.3   8.8 1.8   2.2 WSW | 250 5.7   5.6 SSW | 212 0.00 1.6   0.1 63.4   3.1 0.00 51.2   2.5 52.9   2.1 15.4   2.0
Glenbrook-Spooner Summit 9/4/26 0540 47.1   0.2 73   29 39.1   12.9 5.9   0.2 WSW | 254 17.3   4.0 WSW | 247 0.00 7.7   0.0 64.2   0.7 0.00 46.7   0.4 48.8   0.7 23.8   1.0
Hobo Hot Springs 9/4/26 0540 60.6   6.0 48   8 40.8   9.8 9.3   7.1 SW | 219 19.6   14.0 SW | 225 0.00 1.0   0.0 69.6   1.8 0.00 60.1   6.2 61.6   0.8 24.8   0.5
Jack Valley Ranch 2 9/4/26 0540 57.1   1.5 54   24 40.6   15.5 3.7   2.4 S | 183 10.7   6.0 SSE | 159 0.00 2.1   0.0 73.3   0.2 0.00 57.0   2.0 58.4   1.4 22.6   2.7
Genoa North 2 9/4/26 0540 58.5   0.9 52   21 41.2   13.4 5.4   1.1 WSW | 239 14.7   1.9 WSW | 254 0.00 0.8   0.0 73.0   0.2 0.00 58.3   4.6 60.0   2.1 23.7   5.0
Mottsville 2 9/4/26 0540 59.9   8.5 48   10 40.4   13.4 3.1   2.4 NE | 40 7.5   5.8 NNE | 13 0.00 1.3   0.1 71.3   0.5 0.00 59.6   10.1 62.0   4.5 28.4   20.5
Kingsbury Village 3 9/4/26 0540 43.3   1.5 83   28 38.4   11.9 1.9   1.0 NNW | 333 6.6   0.5 ESE | 121 0.00 3.2   0.1 59.5   1.0 0.00 43.2   2.8 45.0   3.1 11.9   0.6
Kingsbury-Benjamin Dr 2 9/4/26 0540 45.0   2.3 80   20 39.3   9.4 2.8   1.2 WSW | 246 10.9   5.1 SSW | 209 0.00 2.9   0.1 65.4   0.1 0.00 44.9   3.0 47.0   3.4 14.2   6.7
Smith Valley-Wellington 9/4/26 0540 61.6   2.9 41   12 37.5   11.0 3.5   3.2 SSW | 208 6.1   5.7 SSW | 199 0.00 3.5   0.0 79.3   0.1 0.00 61.5   2.8 62.7   2.0 14.8   2.1
Sheridan South 2 9/4/26 0540 60.2   9.3 47   8 40.0   12.9 8.5   5.7 SE | 138 19.5   13.9 SE | 143 0.00 0.5   0.0 71.4   0.2 0.00 59.0   10.3 61.4   2.4 24.8   11.4
Silver Springs 9/4/26 0540 63.4   8.4 42   6 40.0   11.4 10.3   8.2 WSW | 239 13.5   8.4 SW | 232 0.00 4.9   0.0 76.7   0.5 0.00 63.2   8.6 64.6   3.6 22.8   1.1
Fernley 9/4/26 0540 63.7   7.8 41   1 39.4   7.9 7.6   5.7 WSW | 256 11.6   8.3 WSW | 257 0.00 3.1   0.1 72.7   2.9 0.00 63.1   9.1 63.9   3.6 18.6   7.2
Spanish Springs 9/4/26 0540 59.9   1.6 49   15 40.6   10.7 2.8   0.3 S | 191 5.5   0.9 SSW | 195 0.00 10.2   0.0 74.0   0.3 0.00 57.6   0.1 60.7   1.5 15.8   9.1
Suttcliffe South 2 9/4/26 0540 55.7   1.7 78   39 49.0   16.5 3.8   11.7 NNW | 343 13.2   6.3 NNE | 23 0.00 4.1   0.0 68.3   1.1 0.00 55.2   1.9 59.6   0.4 14.4   20.7
Lemmon Valley North 9/4/26 0540 53.4   0.3 70   27 43.9   12.0 5.7   2.3 SSW | 207 9.4   6.3 SSW | 208 0.00 2.0   0.0 69.9   0.1 0.00 52.9   4.0 54.3   0.3 12.0   11.8
Lemmon Valley NW 3 9/4/26 0540 57.1   2.6 55   12 41.1   8.8 8.7   2.1 WSW | 242 15.4   1.5 WSW | 245 0.00 1.2   0.1 70.6   0.6 0.00 55.5   2.7 58.1   0.8 20.1   2.5
VC Highlands North 9/4/26 0540 54.1   2.5 56   11 38.8   8.0 4.0   0.9 SW | 214 7.3   0.5 SW | 218 0.00 4.6   0.2 66.0   5.7 0.00 53.2   2.7 54.8   2.0 18.9   2.0
Upper Voltaire Cyn 9/4/26 0540 54.8   0.5 56   28 39.6   17.1 12.0   0.6 S | 185 29.7   5.2 S | 169 0.00 1.1   0.0 68.2   0.4 0.00 54.8   0.8 55.8   0.6 31.3   6.8
Yerington NW 9/4/26 0540 61.9   5.6 44   14 40.1   14.7 6.2   2.9 SW | 223 7.6   1.2 SW | 227 0.00 7.2   0.0 72.4   1.1 0.00 60.1   9.9 62.8   0.2 16.0   5.6
Spanish Springs SW 9/4/26 0540 58.9   1.4 50   18 40.3   12.6 7.6   1.1 SW | 236 14.9   2.8 WSW | 246 0.00 1.4   0.0 72.5   0.9 0.00 57.3   0.6 59.5   0.9 14.9   20.2
Cosgrave 2 8/27/26 0750 62.9   4.1 34   3 33.8   1.4 2.6   0.5 WSW | 246 4.1   1.0 W | 267 0.00 3.8   0.1 77.4   2.9 0.00 62.7   3.3 77.4   3.5 11.2   3.9
Winnemucca-Grass Valley 2 9/4/26 0540 51.4   0.6 68   20 41.1   9.5 1.9   2.1 NW | 315 5.3   0.0 WNW | 298 0.00 7.6   0.0 64.8   1.7 0.00 51.1   1.9 59.1   2.1 12.7   3.8
Winnemucca-Dutch Flat Rd 9/4/26 0540 53.5   3.0 66   28 42.4   11.1 1.9   2.7 NW | 323 2.7   4.3 NW | 319 0.00 6.1   0.0 72.0   0.1 0.00 53.5   0.8 59.4   2.0 16.0   6.2
Paradise Valley 2 9/4/26 0540 50.4   2.2 66   15 39.5   4.6 1.0   0.1 N | 10 3.1   0.2 NE | 46 0.00 12.4   0.2 70.1   0.5 0.00 50.3   2.0 59.2   1.1 16.4   7.7
Golconda 2 9/4/26 0540 52.2   4.2 64   26 40.3   9.6 4.6   1.1 W | 264 6.8   1.9 W | 271 0.00 1.8   0.1 71.2   1.2 0.00 51.6   2.2 60.1   1.4 21.6   13.0
Battle Mountain - South 9/4/26 0540 53.5   0.4 56   20 38.4   10.8 1.5   5.1 SE | 128 2.5   8.9 S | 185 0.00 9.1   0.1 73.0   0.8 0.00 52.4   0.2 60.2   1.3 11.8   0.7
Geiger Summit 9/4/26 0540 50.5   2.3 100   0 50.5   2.3 9.8   1.8 SSW | 199 20.0   1.6 S | 176 0.00 6.1   0.2 61.2   3.0 0.00 50.5   2.5 51.0   1.1 20.0   1.0
Combs Canyon 3 9/4/26 0540 58.9   2.4 50   18 40.4   13.4 6.8   1.6 SSW | 202 14.4   4.4 S | 169 0.00 1.0   0.1 72.6   0.7 0.00 58.8   2.7 60.1   1.0 21.6   7.6
Clear Creek 9/4/26 0540 55.1   0.5 56   28 39.7   17.4 5.8   0.9 S | 187 13.4   5.1 SE | 132 0.00 3.4   0.0 68.2   1.8 0.00 55.0   1.1 56.5   1.2 29.7   10.2
Eastlake 2 9/4/26 0540 58.6   3.2 51   15 40.5   11.8 12.9   8.2 SSE | 151 23.4   13.4 SE | 146 0.00 3.4   0.1 71.0   1.3 0.00 58.4   3.8 59.6   2.3 23.4   7.5
Lovelock-Colado 2 9/4/26 0540 53.0   5.8 59   26 39.0   9.7 6.7   4.1 NNE | 26 9.1   5.5 NE | 35 0.00 - 73.0   0.1 0.00 45.5   10.8 57.3   2.9 12.5   1.6
Spanish Springs NW 9/4/26 0540 59.2   0.6 52   20 41.5   13.0 0.2   2.5 WNW | 298 1.4   3.0 WNW | 285 0.00 12.2   0.1 67.4   0.1 0.00 58.4   1.2 59.9   0.0 9.9   11.8
Battle Mountain NW 9/4/26 0540 55.2   3.6 54   23 38.9   10.3 0.6   2.7 SW | 214 2.2   5.6 SW | 218 0.00 8.6   0.0 74.7   1.1 0.00 54.9   2.6 60.0   0.8 7.9   7.8
Austin 2 9/4/26 0440 40.6   1.5 68   18 30.9   8.8 2.8   1.3 SW | 231 4.8   1.9 SSW | 213 0.00 2.2   0.1 59.1   3.2 0.00 39.7   2.5 48.2   0.9 8.6   0.6
Elko-Osino 9/4/26 0540 50.1   4.4 55   22 34.6   8.6 4.8   1.1 W | 277 6.2   0.2 W | 278 0.00 1.4   0.1 74.1   1.1 0.00 49.2   4.3 56.6   1.4 10.7   3.5
Elko-Bill Fishpond 2 9/4/26 0540 50.5   5.2 55   24 35.1   9.2 5.6   2.4 SE | 136 7.0   0.7 SE | 130 0.00 3.5   0.1 66.7   0.9 0.00 49.0   4.3 59.4   0.2 11.8   3.2
Spring Creek SE 2 9/4/26 0540 49.2   7.1 58   32 35.1   13.2 2.4   8.1 ENE | 76 3.0   11.8 E | 79 0.00 0.2   0.0 67.3   0.5 0.00 44.2   7.1 55.8   0.7 7.6   8.8
Spring Creek NW 9/4/26 0540 49.4   3.6 57   27 35.0   12.7 0.1   1.9 N | 351 1.1   2.9 N | 351 0.00 2.2   0.0 71.5   1.6 0.00 49.2   2.8 58.8   0.9 13.7   5.1
Elko-Moleen 9/4/26 0540 47.9   7.7 62   30 35.3   9.2 2.5   1.4 E | 80 4.0   0.6 ENE | 69 0.00 6.2   0.0 75.5   0.8 0.00 46.4   5.5 58.2   0.8 7.2   0.0
Elko-West 9/4/26 0540 44.4   5.6 60   22 31.5   5.7 0.5   0.2 E | 87 1.9   0.4 E | 88 0.00 33.2   0.2 66.4   1.0 0.00 43.3   6.2 55.4   1.5 6.3   0.7
Elko-Adobe Creek 9/4/26 0540 50.1   0.7 58   23 35.8   12.0 6.1   3.9 SSW | 209 9.1   4.5 SW | 214 0.00 18.4   0.0 67.7   0.5 0.00 48.6   1.6 55.6   1.0 12.9   0.6
Tuscarora SW 9/4/26 0540 47.4   4.0 67   31 37.0   11.8 2.8   0.4 S | 182 4.2   1.0 S | 191 0.00 6.8   0.0 70.8   0.3 0.00 42.7   4.5 51.6   1.5 13.7   3.5
Elko-Monument Peak 9/4/26 0540 41.8   7.5 63   28 30.0   7.6 1.3   2.4 SSE | 153 2.5   3.5 W | 261 0.00 4.2   0.4 68.1   0.7 0.00 40.2   6.1 56.9   5.4 7.6   0.4
Wild Horse 9/4/26 0540 49.5   1.2 59   23 35.9   11.1 0.3   4.1 E | 97 2.4   2.9 E | 101 0.00 4.5   0.0 65.6   1.0 0.00 49.2   0.7 54.0   0.6 9.3   9.9
Max     80.3 100 50.5 28.4 - 37.9 - 0.01 43.3 98.3 0.04 80.0 110.0 41.9
Avg     56.4 56 39.3 5.7 - 11.3 - 0.00 7.0 70.9 - - - -
Min     40.6 19 23.3 0.1 - 1.1 - 0.00 0.2 32.0 0.00 39.7 45.0 6.0